Time;durP1;ratioP1;P1;durP2;ratioP2;P2;SDS_P1;SDS_P2;PMS_P1;PMS_P2;Temp;Humidity;BMP_temperature;BMP_pressure;BME280_temperature;BME280_humidity;BME280_pressure;Samples;Min_cycle;Max_cycle;Signal;HPM_P1;HPM_P2
2022/08/07 00:01:01;;;;;;;9.00;4.30;;;13.60;99.90;;;;;;4933424;28;20046;-89
2022/08/07 00:03:37;;;;;;;9.10;4.55;;;13.70;99.90;;;;;;4931624;29;20043;-90
2022/08/07 00:06:19;;;;;;;9.40;4.80;;;13.60;99.90;;;;;;4932037;28;20047;-90
2022/08/07 00:08:48;;;;;;;10.10;5.20;;;;;;;;;;4917437;28;20137;-89
2022/08/07 00:11:16;;;;;;;9.73;4.97;;;13.60;99.90;;;;;;4933289;28;20432;-89
2022/08/07 00:13:44;;;;;;;9.32;4.60;;;13.60;99.90;;;;;;4930379;28;20047;-90
2022/08/07 00:16:14;;;;;;;9.77;5.10;;;13.50;99.90;;;;;;4931738;28;20412;-89
2022/08/07 00:18:48;;;;;;;9.90;4.53;;;13.60;99.90;;;;;;4933877;28;20460;-89
2022/08/07 00:21:14;;;;;;;9.65;4.45;;;13.50;99.90;;;;;;4948722;28;20043;-89
2022/08/07 00:23:40;;;;;;;9.43;5.10;;;13.60;99.90;;;;;;4933331;28;20047;-90
2022/08/07 00:26:09;;;;;;;10.77;4.88;;;13.50;99.90;;;;;;4945783;28;20035;-89
2022/08/07 00:28:38;;;;;;;9.82;4.72;;;13.60;99.90;;;;;;4949581;28;20039;-89
2022/08/07 00:31:08;;;;;;;9.30;4.32;;;13.60;99.90;;;;;;4890236;28;20048;-90
2022/08/07 00:33:40;;;;;;;9.48;4.80;;;13.50;99.90;;;;;;4948783;28;20584;-90
2022/08/07 00:36:12;;;;;;;9.57;4.40;;;13.50;99.90;;;;;;4950433;28;20051;-90
2022/08/07 00:38:41;;;;;;;10.30;5.25;;;;;;;;;;4932216;28;20139;-90
2022/08/07 00:41:10;;;;;;;9.18;4.45;;;13.50;99.90;;;;;;4931828;28;20112;-89
2022/08/07 00:43:36;;;;;;;9.45;4.72;;;13.40;99.90;;;;;;4933311;29;20441;-90
2022/08/07 00:46:04;;;;;;;9.75;4.50;;;13.40;99.90;;;;;;4932901;28;20051;-90
2022/08/07 00:48:32;;;;;;;10.18;4.93;;;13.40;99.90;;;;;;4936134;28;20031;-90
2022/08/07 00:50:59;;;;;;;10.05;4.88;;;13.40;99.90;;;;;;4948397;28;20051;-90
2022/08/07 00:53:25;;;;;;;9.73;4.38;;;;;;;;;;4949342;28;20075;-90
2022/08/07 00:55:54;;;;;;;9.52;4.68;;;;;;;;;;4933201;28;20434;-90
2022/08/07 00:58:22;;;;;;;8.98;4.40;;;13.90;99.90;;;;;;4933443;28;20047;-90
2022/08/07 01:00:51;;;;;;;9.20;4.38;;;13.30;99.90;;;;;;4917735;29;20047;-90
2022/08/07 01:03:18;;;;;;;10.45;5.10;;;;;;;;;;4931658;28;20041;-90
2022/08/07 01:05:45;;;;;;;9.38;4.85;;;13.30;99.90;;;;;;4933396;28;20144;-89
2022/08/07 01:08:11;;;;;;;9.68;4.93;;;13.40;99.90;;;;;;4933652;28;20062;-89
2022/08/07 01:10:38;;;;;;;9.35;5.05;;;13.40;99.90;;;;;;4914154;28;20047;-89
2022/08/07 01:13:07;;;;;;;10.77;4.82;;;13.30;99.90;;;;;;4932388;29;20071;-89
2022/08/07 01:15:33;;;;;;;9.90;4.97;;;13.40;99.90;;;;;;4930193;29;20151;-90
2022/08/07 01:17:59;;;;;;;10.45;4.53;;;13.40;99.90;;;;;;4929889;28;20524;-90
2022/08/07 01:20:32;;;;;;;10.10;4.57;;;13.40;99.90;;;;;;4914494;28;20147;-92
2022/08/07 01:23:00;;;;;;;9.32;4.57;;;13.40;99.90;;;;;;4932369;28;20082;-91
2022/08/07 01:25:27;;;;;;;9.25;4.32;;;13.40;99.90;;;;;;4931771;29;20075;-90
2022/08/07 01:27:54;;;;;;;8.90;4.15;;;13.30;99.90;;;;;;4917908;29;20043;-92
2022/08/07 01:30:21;;;;;;;10.88;5.20;;;13.20;99.90;;;;;;4931040;28;20046;-90
2022/08/07 01:32:47;;;;;;;10.02;4.93;;;13.10;99.90;;;;;;4916131;29;20113;-90
2022/08/07 01:35:13;;;;;;;9.48;4.82;;;13.10;99.90;;;;;;4915278;29;20051;-90
2022/08/07 01:37:39;;;;;;;10.05;4.78;;;13.10;99.90;;;;;;4916549;28;20043;-90
2022/08/07 01:40:05;;;;;;;10.43;5.25;;;13.10;99.90;;;;;;4917577;28;20405;-89
2022/08/07 01:42:32;;;;;;;13.40;5.88;;;13.00;99.90;;;;;;4932142;28;20133;-90
2022/08/07 01:44:58;;;;;;;11.40;5.30;;;13.00;99.90;;;;;;4948246;28;20077;-88
2022/08/07 01:47:24;;;;;;;10.38;5.00;;;13.00;99.90;;;;;;4928755;28;20090;-90
2022/08/07 01:49:50;;;;;;;11.13;5.38;;;13.00;99.90;;;;;;4931395;29;20089;-89
2022/08/07 01:52:18;;;;;;;11.32;5.10;;;13.00;99.90;;;;;;4946490;28;20050;-90
2022/08/07 01:54:44;;;;;;;10.13;5.10;;;12.90;99.90;;;;;;4917211;28;20101;-89
2022/08/07 01:57:24;;;;;;;10.43;5.10;;;12.90;99.90;;;;;;4947532;28;20039;-90
2022/08/07 02:00:06;;;;;;;10.43;5.38;;;12.90;99.90;;;;;;4932053;28;20042;-90
2022/08/07 02:02:50;;;;;;;12.38;5.47;;;12.90;99.90;;;;;;4930442;28;20043;-89
2022/08/07 02:05:29;;;;;;;11.80;5.13;;;12.80;99.90;;;;;;4931477;28;20083;-90
2022/08/07 02:07:57;;;;;;;9.88;4.97;;;12.90;99.90;;;;;;4945276;28;20038;-90
2022/08/07 02:10:25;;;;;;;10.32;5.40;;;12.90;99.90;;;;;;4933421;28;20126;-90
2022/08/07 02:12:54;;;;;;;11.90;5.90;;;13.00;99.90;;;;;;4930692;29;20039;-89
2022/08/07 02:15:23;;;;;;;10.05;5.28;;;13.00;99.90;;;;;;4930727;28;20126;-90
2022/08/07 02:17:50;;;;;;;9.77;4.93;;;13.00;99.90;;;;;;4932477;28;20039;-89
2022/08/07 02:20:17;;;;;;;12.27;5.60;;;13.00;99.90;;;;;;4935494;29;20401;-90
2022/08/07 02:22:45;;;;;;;11.88;5.40;;;13.00;99.90;;;;;;4936483;28;20058;-89
2022/08/07 02:25:12;;;;;;;14.30;5.50;;;13.00;99.90;;;;;;4936746;29;20046;-90
2022/08/07 02:27:40;;;;;;;11.70;5.43;;;13.00;99.90;;;;;;4950598;28;20615;-89
2022/08/07 02:30:07;;;;;;;12.02;5.43;;;13.10;99.90;;;;;;4935285;29;20054;-89
2022/08/07 02:32:36;;;;;;;12.10;5.50;;;13.10;99.90;;;;;;4919700;29;20059;-89
2022/08/07 02:35:06;;;;;;;10.63;5.70;;;13.60;99.90;;;;;;4936125;29;20504;-89
2022/08/07 02:37:39;;;;;;;11.45;5.68;;;13.10;99.90;;;;;;4933678;28;20043;-89
2022/08/07 02:40:07;;;;;;;10.85;5.43;;;13.10;99.90;;;;;;4936556;28;20499;-89
2022/08/07 02:42:34;;;;;;;10.82;5.18;;;13.10;99.90;;;;;;4933846;28;20038;-89
2022/08/07 02:45:03;;;;;;;10.85;5.85;;;13.10;99.90;;;;;;4933781;28;20126;-88
2022/08/07 02:47:29;;;;;;;10.98;4.88;;;13.10;99.90;;;;;;4948258;28;20531;-89
2022/08/07 02:49:55;;;;;;;10.13;4.72;;;13.10;99.90;;;;;;4933875;28;20039;-90
2022/08/07 02:52:33;;;;;;;11.27;5.28;;;13.10;99.90;;;;;;4949126;28;20046;-89
2022/08/07 02:55:09;;;;;;;9.82;4.95;;;13.30;99.90;;;;;;4933556;29;20047;-89
2022/08/07 02:57:36;;;;;;;9.82;5.03;;;13.10;99.90;;;;;;4950220;28;20039;-89
2022/08/07 03:00:04;;;;;;;10.48;5.07;;;13.10;99.90;;;;;;4919314;28;20062;-89
2022/08/07 03:02:31;;;;;;;11.50;5.30;;;13.10;99.90;;;;;;4934397;28;20035;-90
2022/08/07 03:04:59;;;;;;;11.05;5.32;;;13.90;99.90;;;;;;4934819;29;20440;-89
2022/08/07 03:07:25;;;;;;;10.52;4.95;;;13.10;99.90;;;;;;4935633;28;20047;-90
2022/08/07 03:09:51;;;;;;;10.73;5.13;;;13.10;99.90;;;;;;4935738;29;20039;-90
2022/08/07 03:12:18;;;;;;;10.65;4.93;;;13.10;99.90;;;;;;4919342;29;20122;-90
2022/08/07 03:14:44;;;;;;;10.10;4.75;;;13.10;99.90;;;;;;4919288;28;20090;-90
2022/08/07 03:17:10;;;;;;;10.05;5.10;;;13.10;99.90;;;;;;4951405;28;20054;-90
2022/08/07 03:19:36;;;;;;;11.02;5.22;;;13.10;99.90;;;;;;4919137;29;20027;-90
2022/08/07 03:22:04;;;;;;;12.98;5.05;;;13.10;99.90;;;;;;4920840;28;20099;-89
2022/08/07 03:24:31;;;;;;;10.93;4.90;;;13.10;99.90;;;;;;4939452;29;20627;-90
2022/08/07 03:27:05;;;;;;;10.15;4.97;;;13.10;99.90;;;;;;4939772;28;20503;-90
2022/08/07 03:29:38;;;;;;;12.23;5.55;;;13.10;99.90;;;;;;4952962;28;20039;-90
2022/08/07 03:32:10;;;;;;;10.95;5.13;;;13.10;99.90;;;;;;4944257;28;20138;-89
2022/08/07 03:34:37;;;;;;;11.55;5.57;;;13.00;99.90;;;;;;4947944;28;20042;-89
2022/08/07 03:37:04;;;;;;;9.93;5.05;;;13.10;99.90;;;;;;4956893;28;20046;-89
2022/08/07 03:39:35;;;;;;;10.23;5.05;;;13.10;99.90;;;;;;4915667;29;20047;-89
2022/08/07 03:42:05;;;;;;;9.15;4.72;;;13.10;99.90;;;;;;4935184;28;20520;-89
2022/08/07 03:44:36;;;;;;;10.50;4.95;;;13.10;99.90;;;;;;4933512;28;20394;-88
2022/08/07 03:47:03;;;;;;;9.98;5.00;;;14.20;99.90;;;;;;4933738;29;20042;-88
2022/08/07 03:49:29;;;;;;;11.38;4.80;;;13.00;99.90;;;;;;4947961;28;20058;-89
2022/08/07 03:51:57;;;;;;;10.07;4.85;;;13.00;99.90;;;;;;4915293;28;20086;-89
2022/08/07 03:54:23;;;;;;;10.55;5.05;;;13.60;99.90;;;;;;4934842;28;20118;-89
2022/08/07 03:56:51;;;;;;;10.05;4.80;;;13.00;99.90;;;;;;4917199;28;20035;-90
2022/08/07 03:59:17;;;;;;;12.25;4.80;;;13.00;99.90;;;;;;4933076;28;20039;-90
2022/08/07 04:01:44;;;;;;;10.77;4.82;;;13.00;99.90;;;;;;4934363;29;20518;-89
2022/08/07 04:04:10;;;;;;;9.68;4.75;;;12.90;99.90;;;;;;4917661;28;20050;-89
2022/08/07 04:06:39;;;;;;;11.32;5.53;;;12.90;99.90;;;;;;4932728;28;20066;-89
2022/08/07 04:09:06;;;;;;;10.38;4.88;;;12.90;99.90;;;;;;4936039;28;20035;-89
2022/08/07 04:11:33;;;;;;;10.30;4.88;;;12.90;99.90;;;;;;4919349;28;20480;-89
2022/08/07 04:14:01;;;;;;;10.07;4.85;;;12.90;99.90;;;;;;4932237;28;20054;-89
2022/08/07 04:16:27;;;;;;;11.18;5.20;;;12.90;99.90;;;;;;4945719;28;20277;-89
2022/08/07 04:18:54;;;;;;;10.30;5.10;;;12.90;99.90;;;;;;4928951;29;20519;-88
2022/08/07 04:21:19;;;;;;;10.50;5.22;;;12.90;99.90;;;;;;4932925;28;20039;-88
2022/08/07 04:23:46;;;;;;;9.65;4.60;;;12.90;99.90;;;;;;4912319;29;20058;-89
2022/08/07 04:26:12;;;;;;;12.20;5.22;;;12.90;99.90;;;;;;4914400;29;20257;-89
2022/08/07 04:28:40;;;;;;;11.82;5.18;;;12.90;99.90;;;;;;4917495;28;20552;-89
2022/08/07 04:31:06;;;;;;;11.30;4.90;;;13.00;99.90;;;;;;4929807;28;20078;-89
2022/08/07 04:33:33;;;;;;;10.95;4.72;;;13.00;99.90;;;;;;4949648;28;20047;-88
2022/08/07 04:36:01;;;;;;;10.38;4.55;;;13.00;99.90;;;;;;4931746;28;20337;-87
2022/08/07 04:38:27;;;;;;;10.10;4.63;;;13.00;99.90;;;;;;4950453;28;20070;-89
2022/08/07 04:40:53;;;;;;;9.30;4.60;;;13.00;99.90;;;;;;4932873;29;20074;-89
2022/08/07 04:43:25;;;;;;;10.90;4.93;;;13.10;99.90;;;;;;4947544;28;20039;-88
2022/08/07 04:46:00;;;;;;;10.20;4.68;;;13.10;99.90;;;;;;4929946;29;20066;-89
2022/08/07 04:48:55;;;;;;;9.45;4.85;;;13.10;99.90;;;;;;4931223;28;20051;-89
2022/08/07 04:51:36;;;;;;;9.50;4.50;;;13.20;99.90;;;;;;4944825;28;20050;-88
2022/08/07 04:54:26;;;;;;;9.77;4.68;;;13.20;99.90;;;;;;4960444;28;20106;-89
2022/08/07 04:57:03;;;;;;;10.63;4.95;;;13.20;99.90;;;;;;4931509;28;20127;-88
2022/08/07 04:59:42;;;;;;;9.98;4.57;;;13.30;99.90;;;;;;4931204;28;20055;-90
2022/08/07 05:02:26;;;;;;;9.95;4.45;;;13.30;99.90;;;;;;4965154;28;20508;-89
2022/08/07 05:05:14;;;;;;;10.25;5.00;;;13.40;99.90;;;;;;4931581;29;20138;-89
2022/08/07 05:07:50;;;;;;;10.57;4.75;;;13.40;99.90;;;;;;4932133;29;20069;-90
2022/08/07 05:10:25;;;;;;;9.98;4.30;;;13.50;99.90;;;;;;4932819;28;20039;-90
2022/08/07 05:13:13;;;;;;;13.80;4.38;;;13.50;99.90;;;;;;4932249;29;20438;-89
2022/08/07 05:15:42;;;;;;;10.43;4.68;;;13.60;99.90;;;;;;4931188;29;20405;-90
2022/08/07 05:18:15;;;;;;;9.15;4.50;;;13.70;99.90;;;;;;4929627;28;20118;-89
2022/08/07 05:20:45;;;;;;;9.20;4.20;;;13.80;99.90;;;;;;4932506;28;20105;-89
2022/08/07 05:23:20;;;;;;;9.70;4.55;;;13.90;99.90;;;;;;4933324;28;20050;-90
2022/08/07 05:25:47;;;;;;;9.38;4.50;;;13.90;99.90;;;;;;4933863;28;20074;-90
2022/08/07 05:28:14;;;;;;;10.02;4.90;;;14.00;99.90;;;;;;4914120;29;20039;-89
2022/08/07 05:30:41;;;;;;;10.23;4.95;;;14.10;99.90;;;;;;4931938;28;20043;-90
2022/08/07 05:33:08;;;;;;;10.38;5.13;;;14.20;99.90;;;;;;4914750;28;20059;-89
2022/08/07 05:35:35;;;;;;;10.15;5.30;;;14.20;99.90;;;;;;4915238;29;20047;-90
2022/08/07 05:38:09;;;;;;;10.07;4.90;;;14.30;99.90;;;;;;4929104;29;20047;-90
2022/08/07 05:40:37;;;;;;;10.43;5.20;;;15.40;99.90;;;;;;4916636;28;20114;-90
2022/08/07 05:43:10;;;;;;;10.45;5.45;;;14.40;99.90;;;;;;4947499;28;20043;-90
2022/08/07 05:45:36;;;;;;;12.85;5.90;;;14.60;99.90;;;;;;4929122;29;20046;-90
2022/08/07 05:48:04;;;;;;;10.98;5.85;;;14.60;99.90;;;;;;4913030;28;20073;-89
2022/08/07 05:50:32;;;;;;;10.65;5.25;;;14.70;99.90;;;;;;4913975;28;20492;-89
2022/08/07 05:52:59;;;;;;;10.98;5.72;;;14.50;99.90;;;;;;4908615;29;20059;-88
2022/08/07 05:55:28;;;;;;;10.88;4.88;;;14.80;99.90;;;;;;4930657;28;20063;-90
2022/08/07 05:57:55;;;;;;;9.65;4.80;;;14.90;99.90;;;;;;4916469;29;20074;-90
2022/08/07 06:00:24;;;;;;;8.98;4.53;;;15.00;99.90;;;;;;4930392;29;20039;-90
2022/08/07 06:02:51;;;;;;;9.73;4.90;;;15.10;99.90;;;;;;4916783;29;20039;-89
2022/08/07 06:05:20;;;;;;;9.50;4.60;;;15.80;99.90;;;;;;4933164;29;20488;-91
2022/08/07 06:07:47;;;;;;;10.30;4.63;;;15.30;99.90;;;;;;4931558;28;20051;-89
2022/08/07 06:10:15;;;;;;;10.18;5.20;;;15.40;99.90;;;;;;4912372;29;20035;-89
2022/08/07 06:12:44;;;;;;;10.50;5.00;;;15.40;99.90;;;;;;4936164;28;20286;-89
2022/08/07 06:15:16;;;;;;;11.02;5.28;;;15.50;99.90;;;;;;4930905;28;20102;-90
2022/08/07 06:17:43;;;;;;;11.38;5.32;;;15.70;99.90;;;;;;4945786;28;20043;-90
2022/08/07 06:20:09;;;;;;;10.13;4.40;;;15.70;99.90;;;;;;4947000;28;20118;-89
2022/08/07 06:22:38;;;;;;;10.18;3.90;;;15.80;99.90;;;;;;4947926;28;20037;-89
2022/08/07 06:25:05;;;;;;;9.02;4.03;;;16.00;99.90;;;;;;4933641;29;20122;-89
2022/08/07 06:27:31;;;;;;;8.90;4.15;;;16.10;99.90;;;;;;4917472;28;20051;-89
2022/08/07 06:29:56;;;;;;;9.02;3.80;;;16.40;99.90;;;;;;4933435;29;20051;-88
2022/08/07 06:32:22;;;;;;;10.43;3.92;;;16.20;99.90;;;;;;4900021;28;20416;-89
2022/08/07 06:34:48;;;;;;;9.65;3.85;;;16.30;99.90;;;;;;4915555;28;20521;-89
2022/08/07 06:37:14;;;;;;;8.45;4.18;;;16.40;99.90;;;;;;4917975;29;20118;-90
2022/08/07 06:39:39;;;;;;;8.43;3.70;;;16.50;99.90;;;;;;4933183;28;20074;-89
2022/08/07 06:42:10;;;;;;;9.10;4.18;;;16.50;99.90;;;;;;4917677;29;20039;-89
2022/08/07 06:44:38;;;;;;;9.02;3.80;;;16.60;99.90;;;;;;4932444;28;20073;-90
2022/08/07 06:47:04;;;;;;;10.40;4.22;;;16.70;99.90;;;;;;4948097;28;20101;-90
2022/08/07 06:49:30;;;;;;;8.77;3.70;;;16.80;99.90;;;;;;4916138;28;20508;-89
2022/08/07 06:51:57;;;;;;;8.90;4.07;;;16.90;99.90;;;;;;4933484;29;20078;-89
2022/08/07 06:54:25;;;;;;;8.57;3.55;;;17.00;99.90;;;;;;4915249;28;20468;-90
2022/08/07 06:56:54;;;;;;;9.63;3.47;;;17.10;99.90;;;;;;4942517;28;20075;-88
2022/08/07 06:59:24;;;;;;;7.82;3.33;;;17.20;99.90;;;;;;4934287;29;20511;-89
2022/08/07 07:01:52;;;;;;;9.15;3.20;;;17.20;99.90;;;;;;4930462;28;20493;-89
2022/08/07 07:04:19;;;;;;;7.53;3.25;;;17.40;99.90;;;;;;4935655;28;20043;-89
2022/08/07 07:06:45;;;;;;;7.63;3.30;;;17.50;99.90;;;;;;4952539;28;20076;-89
2022/08/07 07:09:25;;;;;;;7.88;3.45;;;17.50;99.90;;;;;;4936211;28;20440;-90
2022/08/07 07:12:00;;;;;;;7.38;3.33;;;17.60;99.90;;;;;;4918508;29;20524;-91
2022/08/07 07:14:31;;;;;;;9.25;3.38;;;17.70;99.90;;;;;;4935849;28;20043;-93
2022/08/07 07:17:02;;;;;;;10.32;3.17;;;17.70;99.90;;;;;;4936544;29;20036;-93
2022/08/07 07:19:41;;;;;;;7.45;2.80;;;17.80;99.90;;;;;;4932953;28;20094;-92
2022/08/07 07:22:08;;;;;;;7.95;2.67;;;17.90;99.90;;;;;;4933135;28;20047;-87
2022/08/07 07:24:36;;;;;;;7.60;3.15;;;18.00;99.90;;;;;;4933876;29;20039;-89
2022/08/07 07:27:03;;;;;;;7.32;3.05;;;18.10;99.90;;;;;;4936357;28;20043;-88
2022/08/07 07:29:33;;;;;;;7.05;2.50;;;18.20;99.90;;;;;;4933739;29;20074;-91
2022/08/07 07:32:02;;;;;;;7.55;2.67;;;18.30;99.90;;;;;;4933718;29;20142;-90
2022/08/07 07:34:31;;;;;;;7.43;2.60;;;18.30;99.90;;;;;;4947961;28;20513;-90
2022/08/07 07:37:00;;;;;;;7.05;2.70;;;18.50;99.90;;;;;;4934622;29;20039;-87
2022/08/07 07:39:30;;;;;;;8.27;2.97;;;18.50;99.90;;;;;;4934815;28;20500;-89
2022/08/07 07:42:02;;;;;;;7.93;2.72;;;18.60;99.90;;;;;;4931611;28;20039;-90
2022/08/07 07:44:34;;;;;;;8.48;2.85;;;18.70;99.90;;;;;;4934106;29;20374;-89
2022/08/07 07:50:42;;;;;;;8.13;3.08;;;18.80;99.90;;;;;;4942419;28;20045;-90
2022/08/07 07:53:25;;;;;;;7.40;3.00;;;18.90;99.90;;;;;;4906640;29;20188;-89
2022/08/07 07:56:16;;;;;;;8.13;2.72;;;18.90;99.90;;;;;;4930398;28;20051;-91
2022/08/07 07:58:56;;;;;;;7.60;3.08;;;19.00;99.90;;;;;;4938184;28;20043;-90
2022/08/07 08:01:26;;;;;;;8.70;3.30;;;19.10;99.90;;;;;;4927217;28;20061;-89
2022/08/07 08:08:07;;;;;;;7.82;3.10;;;19.10;99.90;;;;;;4939581;28;20031;-91
2022/08/07 08:10:42;;;;;;;8.43;3.28;;;19.20;99.90;;;;;;4915874;28;20062;-90
2022/08/07 08:13:51;;;;;;;8.18;3.30;;;19.30;99.90;;;;;;4946698;28;20078;-90
2022/08/07 08:16:56;;;;;;;8.13;2.97;;;19.30;99.90;;;;;;4965628;28;20050;-88
2022/08/07 08:19:40;;;;;;;8.68;3.00;;;18.40;99.90;;;;;;4878241;29;20040;-90
2022/08/07 08:28:01;;;;;;;8.77;3.30;;;19.50;99.90;;;;;;4934696;28;20138;-90
2022/08/07 08:30:29;;;;;;;7.82;3.20;;;19.70;99.90;;;;;;4934955;28;20427;-90
2022/08/07 08:32:59;;;;;;;8.50;2.90;;;19.80;99.90;;;;;;4927743;28;20075;-91
2022/08/07 08:35:29;;;;;;;7.70;2.83;;;19.90;99.90;;;;;;4934042;28;20191;-87
2022/08/07 08:38:04;;;;;;;8.98;2.92;;;19.70;99.90;;;;;;4933926;28;20448;-90
2022/08/07 08:40:39;;;;;;;8.48;3.20;;;19.80;99.90;;;;;;4933935;29;20134;-90
2022/08/07 08:43:16;;;;;;;7.78;3.10;;;19.90;99.90;;;;;;4964696;28;20572;-90
2022/08/07 08:46:07;;;;;;;8.15;2.90;;;19.70;99.90;;;;;;4928710;29;20039;-90
2022/08/07 08:48:53;;;;;;;8.07;2.92;;;19.60;99.90;;;;;;4933872;29;20054;-90
2022/08/07 08:51:31;;;;;;;7.88;2.58;;;19.40;99.90;;;;;;4932463;28;20047;-89
2022/08/07 08:54:13;;;;;;;8.23;3.00;;;19.60;99.90;;;;;;4949732;28;20051;-90
2022/08/07 08:56:42;;;;;;;7.70;2.90;;;19.60;99.90;;;;;;4934846;28;20070;-89
2022/08/07 08:59:25;;;;;;;7.70;2.83;;;19.60;99.90;;;;;;4932660;29;20039;-89
2022/08/07 09:02:18;;;;;;;7.30;3.10;;;19.40;99.90;;;;;;4946288;28;20043;-89
2022/08/07 09:04:54;;;;;;;8.60;3.08;;;19.60;99.90;;;;;;4932172;28;20039;-90
2022/08/07 09:07:52;;;;;;;6.72;2.72;;;19.80;99.90;;;;;;4930102;28;20074;-90
2022/08/07 09:10:41;;;;;;;6.57;2.55;;;20.00;99.90;;;;;;4970257;28;20047;-89
2022/08/07 09:13:15;;;;;;;7.97;2.63;;;20.00;99.90;;;;;;4948557;28;20571;-88
2022/08/07 09:15:56;;;;;;;8.70;3.15;;;20.00;99.90;;;;;;4927226;29;20069;-89
2022/08/07 09:18:32;;;;;;;8.02;2.90;;;20.20;99.90;;;;;;4962696;28;20508;-89
2022/08/07 09:21:22;;;;;;;7.80;2.80;;;20.50;99.90;;;;;;4949501;28;20079;-90
2022/08/07 09:23:58;;;;;;;6.90;2.75;;;20.50;99.90;;;;;;4931943;29;20555;-89
2022/08/07 09:26:49;;;;;;;7.47;2.92;;;20.50;99.90;;;;;;4944171;28;20050;-88
2022/08/07 09:29:45;;;;;;;7.47;3.13;;;20.30;99.90;;;;;;4949404;28;20062;-89
2022/08/07 09:32:44;;;;;;;7.43;2.80;;;20.20;99.90;;;;;;4959044;28;20056;-89
2022/08/07 09:35:30;;;;;;;8.43;3.00;;;20.10;99.90;;;;;;4916563;29;20141;-89
2022/08/07 09:37:59;;;;;;;7.63;2.80;;;20.00;99.90;;;;;;4941255;28;20493;-90
2022/08/07 09:40:41;;;;;;;7.10;2.72;;;20.20;99.90;;;;;;4956360;28;20042;-91
2022/08/07 09:43:11;;;;;;;7.10;2.70;;;20.40;99.90;;;;;;4948627;28;20039;-89
2022/08/07 09:45:51;;;;;;;7.10;2.45;;;20.60;99.90;;;;;;4928045;28;20056;-91
2022/08/07 09:48:27;;;;;;;6.85;2.60;;;20.80;99.90;;;;;;4941450;28;20047;-89
2022/08/07 09:51:07;;;;;;;6.03;2.50;;;20.60;99.90;;;;;;4932705;28;20050;-90
2022/08/07 09:53:39;;;;;;;7.00;3.00;;;21.10;99.90;;;;;;4929603;28;20051;-89
2022/08/07 09:56:22;;;;;;;7.55;2.75;;;21.20;99.90;;;;;;4929636;28;20035;-91
2022/08/07 09:58:47;;;;;;;7.45;2.60;;;21.30;99.90;;;;;;4952595;28;20488;-91
2022/08/07 10:01:25;;;;;;;7.22;2.85;;;21.30;99.90;;;;;;4940472;28;20046;-89
2022/08/07 10:04:27;;;;;;;8.35;2.70;;;21.40;99.90;;;;;;4934288;29;20500;-90
2022/08/07 10:07:17;;;;;;;8.68;2.70;;;21.60;99.90;;;;;;4935003;28;20049;-91
2022/08/07 10:10:09;;;;;;;7.82;2.60;;;21.60;99.90;;;;;;4946963;28;20088;-90
2022/08/07 10:12:40;;;;;;;8.02;2.58;;;21.70;99.90;;;;;;4932498;28;20043;-90
2022/08/07 10:15:21;;;;;;;6.28;2.30;;;21.80;99.90;;;;;;4937803;28;20043;-90
2022/08/07 10:17:50;;;;;;;7.28;2.90;;;21.90;99.90;;;;;;4949202;28;20876;-90
2022/08/07 10:20:26;;;;;;;7.65;2.50;;;21.90;99.90;;;;;;4968284;28;20603;-90
2022/08/07 10:22:51;;;;;;;7.55;2.72;;;21.80;99.90;;;;;;4939941;28;20093;-91
2022/08/07 10:25:46;;;;;;;7.65;2.40;;;21.70;99.90;;;;;;4938292;28;20043;-89
2022/08/07 10:28:18;;;;;;;7.78;2.63;;;21.70;99.90;;;;;;4955256;28;20043;-90
2022/08/07 10:30:59;;;;;;;8.38;2.85;;;21.80;99.90;;;;;;4927982;28;20054;-90
2022/08/07 10:33:43;;;;;;;7.15;2.80;;;21.90;99.90;;;;;;4959646;28;20055;-90
2022/08/07 10:36:24;;;;;;;7.70;2.60;;;22.00;99.90;;;;;;4928141;29;20114;-91
2022/08/07 10:38:58;;;;;;;7.00;2.60;;;21.90;99.90;;;;;;4950416;28;20492;-90
2022/08/07 10:41:37;;;;;;;8.00;2.70;;;21.90;99.90;;;;;;4935154;28;20039;-90
2022/08/07 10:44:24;;;;;;;6.90;2.58;;;21.90;99.90;;;;;;4953225;28;20041;-90
2022/08/07 10:47:14;;;;;;;8.00;2.50;;;21.60;99.90;;;;;;4933201;29;20051;-90
2022/08/07 10:49:54;;;;;;;8.40;2.30;;;21.30;99.90;;;;;;4933380;28;20424;-91
2022/08/07 10:52:45;;;;;;;7.85;2.50;;;21.00;99.90;;;;;;4934019;29;20441;-91
2022/08/07 10:55:52;;;;;;;6.40;2.50;;;21.10;99.90;;;;;;4933559;29;20028;-91
2022/08/07 10:58:43;;;;;;;6.22;2.10;;;21.40;99.90;;;;;;4933350;29;20046;-90
2022/08/07 11:01:34;;;;;;;6.10;2.13;;;21.60;99.90;;;;;;4957343;28;20047;-90
2022/08/07 11:04:11;;;;;;;6.68;2.55;;;21.50;99.90;;;;;;4948184;28;20046;-91
2022/08/07 11:07:14;;;;;;;6.82;2.40;;;21.50;99.90;;;;;;4951037;28;20046;-89
2022/08/07 11:09:44;;;;;;;;;;;21.70;99.90;;;;;;4949955;28;20052;-91
2022/08/07 11:12:17;;;;;;;7.78;2.55;;;21.90;99.90;;;;;;4935061;29;20339;-91
2022/08/07 11:14:52;;;;;;;5.82;2.28;;;22.10;99.90;;;;;;4936241;28;20066;-90
2022/08/07 11:17:33;;;;;;;7.00;2.60;;;22.30;99.90;;;;;;4933836;29;20208;-91
2022/08/07 11:20:07;;;;;;;6.55;2.22;;;22.50;99.90;;;;;;4935804;28;20508;-90
2022/08/07 11:22:59;;;;;;;6.07;2.22;;;22.70;99.90;;;;;;4949296;28;20089;-90
2022/08/07 11:25:35;;;;;;;5.50;2.15;;;22.90;99.90;;;;;;4952014;28;20107;-91
2022/08/07 11:28:32;;;;;;;6.97;2.30;;;22.90;99.90;;;;;;4935466;29;20122;-91
2022/08/07 11:31:02;;;;;;;6.82;2.50;;;23.00;99.90;;;;;;4950613;28;20126;-90
2022/08/07 11:33:39;;;;;;;6.00;2.17;;;23.10;99.90;;;;;;4932512;29;20412;-91
2022/08/07 11:36:32;;;;;;;5.43;2.00;;;23.10;99.90;;;;;;4935242;29;20036;-90
2022/08/07 11:39:18;;;;;;;5.95;2.10;;;23.20;99.90;;;;;;4932519;29;20047;-90
2022/08/07 11:41:53;;;;;;;6.07;2.10;;;23.40;99.90;;;;;;4932308;28;20415;-89
2022/08/07 11:45:08;;;;;;;7.03;2.10;;;23.40;99.90;;;;;;4932357;29;20054;-90
2022/08/07 11:48:01;;;;;;;5.38;2.05;;;23.60;99.90;;;;;;4946458;28;20058;-90
2022/08/07 11:50:55;;;;;;;5.95;2.05;;;23.40;99.90;;;;;;4930503;28;20047;-91
2022/08/07 11:53:48;;;;;;;6.75;2.00;;;23.50;99.90;;;;;;4916397;29;20085;-90
2022/08/07 11:56:26;;;;;;;6.10;2.00;;;23.60;99.90;;;;;;4931950;29;20086;-88
2022/08/07 11:59:29;;;;;;;4.65;1.85;;;23.70;99.90;;;;;;4949283;28;20275;-88
2022/08/07 12:02:01;;;;;;;5.28;1.90;;;23.70;99.90;;;;;;4934383;28;20039;-89
2022/08/07 12:05:05;;;;;;;7.07;2.10;;;23.80;99.90;;;;;;4933225;29;20043;-88
2022/08/07 12:07:44;;;;;;;5.38;2.10;;;24.00;99.90;;;;;;4926448;28;20051;-90
2022/08/07 12:10:19;;;;;;;5.82;2.00;;;23.80;99.90;;;;;;4934186;28;20051;-88
2022/08/07 12:13:07;;;;;;;6.57;2.28;;;23.60;99.90;;;;;;4942676;28;20085;-91
2022/08/07 12:15:42;;;;;;;5.97;2.20;;;23.50;99.90;;;;;;4945665;28;20134;-90
2022/08/07 12:18:23;;;;;;;6.63;2.20;;;23.30;99.90;;;;;;4933935;29;20079;-90
2022/08/07 12:21:19;;;;;;;7.03;2.22;;;23.30;99.90;;;;;;4932451;28;20043;-90
2022/08/07 12:23:51;;;;;;;8.63;2.40;;;23.40;99.90;;;;;;4935511;29;20118;-90
2022/08/07 12:26:30;;;;;;;5.72;2.22;;;23.60;99.90;;;;;;4938837;29;20043;-90
2022/08/07 12:29:04;;;;;;;6.43;2.17;;;23.70;99.90;;;;;;4952500;28;20531;-89
2022/08/07 12:32:02;;;;;;;6.20;2.15;;;23.40;99.90;;;;;;4948730;28;20059;-89
2022/08/07 12:34:31;;;;;;;6.85;2.17;;;23.20;99.90;;;;;;4939238;29;20588;-88
2022/08/07 12:36:59;;;;;;;5.57;2.17;;;23.20;99.90;;;;;;4934110;28;20183;-90
2022/08/07 12:39:28;;;;;;;6.22;2.30;;;23.20;99.90;;;;;;4917959;29;20493;-90
2022/08/07 12:41:57;;;;;;;6.65;2.30;;;23.20;99.90;;;;;;4919058;29;20031;-90
2022/08/07 12:44:25;;;;;;;5.78;2.13;;;23.30;99.90;;;;;;4934101;29;20043;-91
2022/08/07 12:47:00;;;;;;;5.68;1.90;;;23.30;99.90;;;;;;4917543;28;20436;-89
2022/08/07 12:49:40;;;;;;;6.15;2.00;;;23.20;99.90;;;;;;4932381;28;20126;-90
2022/08/07 12:52:13;;;;;;;5.70;1.85;;;23.10;99.90;;;;;;4949383;28;20179;-89
2022/08/07 12:54:49;;;;;;;5.85;1.92;;;22.80;99.90;;;;;;4930686;29;20492;-90
2022/08/07 12:57:18;;;;;;;5.30;1.95;;;22.70;99.90;;;;;;4932446;29;20063;-90
2022/08/07 12:59:47;;;;;;;6.43;2.00;;;22.60;99.90;;;;;;4932761;29;20047;-89
2022/08/07 13:02:23;;;;;;;7.43;2.00;;;22.60;99.90;;;;;;4915473;28;20035;-88
2022/08/07 13:05:26;;;;;;;7.68;2.47;;;22.40;99.90;;;;;;4933488;29;20046;-88
2022/08/07 13:08:05;;;;;;;;;;;22.30;99.90;;;;;;4949326;28;20082;-89
2022/08/07 13:10:52;;;;;;;6.45;2.50;;;21.90;99.90;;;;;;4932093;28;20025;-90
2022/08/07 13:13:36;;;;;;;9.18;2.55;;;21.80;99.90;;;;;;4934101;29;20501;-89
2022/08/07 13:16:39;;;;;;;6.63;2.35;;;21.60;99.90;;;;;;4932701;29;20035;-90
2022/08/07 13:19:22;;;;;;;8.70;2.72;;;21.50;99.90;;;;;;4933244;28;20057;-89
2022/08/07 13:21:59;;;;;;;7.55;2.75;;;21.40;99.90;;;;;;4928642;28;20516;-88
2022/08/07 13:24:51;;;;;;;7.38;2.35;;;21.40;99.90;;;;;;4929050;28;20043;-88
2022/08/07 13:27:28;;;;;;;7.45;2.17;;;21.40;99.90;;;;;;4930693;28;20042;-88
2022/08/07 13:29:57;;;;;;;7.28;2.58;;;21.70;99.90;;;;;;4945293;28;20050;-87
2022/08/07 13:32:29;;;;;;;6.72;2.38;;;21.90;99.90;;;;;;4927506;29;20504;-88
2022/08/07 13:35:18;;;;;;;7.28;2.45;;;22.30;99.90;;;;;;4945252;28;20051;-87